sensor_id;sensor_type;location;lat;lon;timestamp;temperature;humidity
13412;DHT22;67102;51.666;6.880;2023-03-12T00:02:14;8.00;77.30
13412;DHT22;67102;51.666;6.880;2023-03-12T00:07:06;8.00;77.50
13412;DHT22;67102;51.666;6.880;2023-03-12T00:09:34;8.00;77.60
13412;DHT22;67102;51.666;6.880;2023-03-12T00:12:00;7.80;77.40
13412;DHT22;67102;51.666;6.880;2023-03-12T00:14:28;7.90;77.50
13412;DHT22;67102;51.666;6.880;2023-03-12T00:16:53;7.80;77.40
13412;DHT22;67102;51.666;6.880;2023-03-12T00:19:19;7.70;77.40
13412;DHT22;67102;51.666;6.880;2023-03-12T00:29:05;7.80;77.90
13412;DHT22;67102;51.666;6.880;2023-03-12T00:31:32;7.80;77.90
13412;DHT22;67102;51.666;6.880;2023-03-12T00:34:00;7.80;78.50
13412;DHT22;67102;51.666;6.880;2023-03-12T00:36:29;7.80;78.50
13412;DHT22;67102;51.666;6.880;2023-03-12T00:38:57;7.80;78.30
13412;DHT22;67102;51.666;6.880;2023-03-12T00:41:24;7.80;78.50
13412;DHT22;67102;51.666;6.880;2023-03-12T00:43:51;7.80;78.50
13412;DHT22;67102;51.666;6.880;2023-03-12T00:46:17;7.90;78.60
13412;DHT22;67102;51.666;6.880;2023-03-12T00:48:45;7.80;78.40
13412;DHT22;67102;51.666;6.880;2023-03-12T00:51:11;7.80;78.20
13412;DHT22;67102;51.666;6.880;2023-03-12T00:53:37;7.80;78.50
13412;DHT22;67102;51.666;6.880;2023-03-12T00:56:04;7.80;78.50
13412;DHT22;67102;51.666;6.880;2023-03-12T00:58:31;7.80;78.50
13412;DHT22;67102;51.666;6.880;2023-03-12T01:00:57;7.80;78.40
13412;DHT22;67102;51.666;6.880;2023-03-12T01:03:24;7.80;78.60
13412;DHT22;67102;51.666;6.880;2023-03-12T01:05:51;7.80;78.70
13412;DHT22;67102;51.666;6.880;2023-03-12T01:08:17;7.90;78.30
13412;DHT22;67102;51.666;6.880;2023-03-12T01:10:43;7.90;78.60
13412;DHT22;67102;51.666;6.880;2023-03-12T01:13:09;7.90;78.40
13412;DHT22;67102;51.666;6.880;2023-03-12T01:15:35;7.90;78.30
13412;DHT22;67102;51.666;6.880;2023-03-12T01:18:01;7.90;78.30
13412;DHT22;67102;51.666;6.880;2023-03-12T01:20:27;7.90;78.30
13412;DHT22;67102;51.666;6.880;2023-03-12T01:22:54;7.90;78.30
13412;DHT22;67102;51.666;6.880;2023-03-12T01:25:20;8.00;78.10
13412;DHT22;67102;51.666;6.880;2023-03-12T01:27:46;7.90;77.50
13412;DHT22;67102;51.666;6.880;2023-03-12T01:30:13;7.90;77.30
13412;DHT22;67102;51.666;6.880;2023-03-12T01:32:39;7.90;78.00
13412;DHT22;67102;51.666;6.880;2023-03-12T01:35:06;8.00;78.10
13412;DHT22;67102;51.666;6.880;2023-03-12T01:37:32;8.00;78.30
13412;DHT22;67102;51.666;6.880;2023-03-12T01:40:00;8.00;77.80
13412;DHT22;67102;51.666;6.880;2023-03-12T01:44:53;8.00;77.30
13412;DHT22;67102;51.666;6.880;2023-03-12T01:47:21;8.10;77.40
13412;DHT22;67102;51.666;6.880;2023-03-12T01:49:48;7.80;77.10
13412;DHT22;67102;51.666;6.880;2023-03-12T01:52:16;8.10;77.30
13412;DHT22;67102;51.666;6.880;2023-03-12T01:54:48;8.00;77.80
13412;DHT22;67102;51.666;6.880;2023-03-12T01:57:19;8.10;77.80
13412;DHT22;67102;51.666;6.880;2023-03-12T01:59:51;8.10;77.60
13412;DHT22;67102;51.666;6.880;2023-03-12T02:02:18;5.50;75.50
13412;DHT22;67102;51.666;6.880;2023-03-12T02:04:45;8.10;77.10
13412;DHT22;67102;51.666;6.880;2023-03-12T02:07:13;8.10;77.00
13412;DHT22;67102;51.666;6.880;2023-03-12T02:09:43;8.10;77.10
13412;DHT22;67102;51.666;6.880;2023-03-12T02:12:12;8.10;77.70
13412;DHT22;67102;51.666;6.880;2023-03-12T02:14:40;8.10;77.80
13412;DHT22;67102;51.666;6.880;2023-03-12T02:17:07;8.10;77.40
13412;DHT22;67102;51.666;6.880;2023-03-12T02:19:40;8.20;77.50
13412;DHT22;67102;51.666;6.880;2023-03-12T02:22:10;8.20;77.30
13412;DHT22;67102;51.666;6.880;2023-03-12T02:24:40;8.20;77.60
13412;DHT22;67102;51.666;6.880;2023-03-12T02:27:11;8.20;77.60
13412;DHT22;67102;51.666;6.880;2023-03-12T02:29:39;8.20;77.60
13412;DHT22;67102;51.666;6.880;2023-03-12T02:32:07;8.20;77.30
13412;DHT22;67102;51.666;6.880;2023-03-12T02:34:34;8.20;77.30
13412;DHT22;67102;51.666;6.880;2023-03-12T02:37:00;8.20;77.60
13412;DHT22;67102;51.666;6.880;2023-03-12T02:39:26;8.20;77.60
13412;DHT22;67102;51.666;6.880;2023-03-12T02:41:54;8.20;77.60
13412;DHT22;67102;51.666;6.880;2023-03-12T02:44:24;8.20;77.30
13412;DHT22;67102;51.666;6.880;2023-03-12T02:46:53;8.20;77.10
13412;DHT22;67102;51.666;6.880;2023-03-12T02:49:22;8.20;77.10
13412;DHT22;67102;51.666;6.880;2023-03-12T02:51:52;8.20;76.80
13412;DHT22;67102;51.666;6.880;2023-03-12T02:54:19;8.20;77.00
13412;DHT22;67102;51.666;6.880;2023-03-12T02:56:46;8.20;76.60
13412;DHT22;67102;51.666;6.880;2023-03-12T02:59:14;8.20;76.40
13412;DHT22;67102;51.666;6.880;2023-03-12T03:01:42;8.60;76.70
13412;DHT22;67102;51.666;6.880;2023-03-12T03:04:09;8.10;76.00
13412;DHT22;67102;51.666;6.880;2023-03-12T03:06:37;8.10;75.90
13412;DHT22;67102;51.666;6.880;2023-03-12T03:09:05;8.10;75.90
13412;DHT22;67102;51.666;6.880;2023-03-12T03:11:30;8.00;76.10
13412;DHT22;67102;51.666;6.880;2023-03-12T03:13:56;8.00;76.00
13412;DHT22;67102;51.666;6.880;2023-03-12T03:16:23;7.90;75.70
13412;DHT22;67102;51.666;6.880;2023-03-12T03:18:50;7.90;75.90
13412;DHT22;67102;51.666;6.880;2023-03-12T03:21:17;7.90;75.90
13412;DHT22;67102;51.666;6.880;2023-03-12T03:23:44;7.80;75.80
13412;DHT22;67102;51.666;6.880;2023-03-12T03:26:11;7.80;75.60
13412;DHT22;67102;51.666;6.880;2023-03-12T03:28:37;8.10;75.80
13412;DHT22;67102;51.666;6.880;2023-03-12T03:31:04;7.70;75.60
13412;DHT22;67102;51.666;6.880;2023-03-12T03:33:32;7.70;75.60
13412;DHT22;67102;51.666;6.880;2023-03-12T03:36:01;7.40;75.70
13412;DHT22;67102;51.666;6.880;2023-03-12T03:38:29;7.70;76.00
13412;DHT22;67102;51.666;6.880;2023-03-12T03:43:22;7.90;76.50
13412;DHT22;67102;51.666;6.880;2023-03-12T03:50:47;7.80;76.40
13412;DHT22;67102;51.666;6.880;2023-03-12T03:53:14;7.90;76.70
13412;DHT22;67102;51.666;6.880;2023-03-12T03:55:40;8.00;76.40
13412;DHT22;67102;51.666;6.880;2023-03-12T04:02:59;7.90;76.30
13412;DHT22;67102;51.666;6.880;2023-03-12T04:10:20;7.90;76.40
13412;DHT22;67102;51.666;6.880;2023-03-12T04:15:14;7.80;76.70
13412;DHT22;67102;51.666;6.880;2023-03-12T04:20:08;8.20;78.70
13412;DHT22;67102;51.666;6.880;2023-03-12T04:27:29;8.00;76.10
13412;DHT22;67102;51.666;6.880;2023-03-12T04:29:55;8.30;83.30
13412;DHT22;67102;51.666;6.880;2023-03-12T04:32:21;8.00;85.70
13412;DHT22;67102;51.666;6.880;2023-03-12T04:37:13;8.30;81.10
13412;DHT22;67102;51.666;6.880;2023-03-12T04:39:39;7.80;75.80
13412;DHT22;67102;51.666;6.880;2023-03-12T04:42:07;8.00;76.00
13412;DHT22;67102;51.666;6.880;2023-03-12T04:44:35;8.10;76.10
13412;DHT22;67102;51.666;6.880;2023-03-12T04:47:02;7.90;76.10
13412;DHT22;67102;51.666;6.880;2023-03-12T04:49:28;7.90;75.80
13412;DHT22;67102;51.666;6.880;2023-03-12T04:51:54;6.70;75.10
13412;DHT22;67102;51.666;6.880;2023-03-12T04:54:20;8.10;76.20
13412;DHT22;67102;51.666;6.880;2023-03-12T04:56:46;8.10;78.80
13412;DHT22;67102;51.666;6.880;2023-03-12T05:01:41;8.10;75.90
13412;DHT22;67102;51.666;6.880;2023-03-12T05:06:34;8.10;75.80
13412;DHT22;67102;51.666;6.880;2023-03-12T05:11:26;8.10;75.90
13412;DHT22;67102;51.666;6.880;2023-03-12T05:13:52;8.10;76.70
13412;DHT22;67102;51.666;6.880;2023-03-12T05:16:18;8.10;76.60
13412;DHT22;67102;51.666;6.880;2023-03-12T05:18:46;8.10;76.80
13412;DHT22;67102;51.666;6.880;2023-03-12T05:21:13;8.10;76.60
13412;DHT22;67102;51.666;6.880;2023-03-12T05:23:41;8.20;76.80
13412;DHT22;67102;51.666;6.880;2023-03-12T05:26:07;8.20;76.40
13412;DHT22;67102;51.666;6.880;2023-03-12T05:28:40;8.10;76.10
13412;DHT22;67102;51.666;6.880;2023-03-12T05:31:08;8.20;76.20
13412;DHT22;67102;51.666;6.880;2023-03-12T05:33:36;8.10;76.10
13412;DHT22;67102;51.666;6.880;2023-03-12T05:36:04;8.10;76.10
13412;DHT22;67102;51.666;6.880;2023-03-12T05:38:30;8.40;76.40
13412;DHT22;67102;51.666;6.880;2023-03-12T05:40:57;8.70;80.20
13412;DHT22;67102;51.666;6.880;2023-03-12T05:45:50;8.50;76.30
13412;DHT22;67102;51.666;6.880;2023-03-12T05:48:17;8.50;76.60
13412;DHT22;67102;51.666;6.880;2023-03-12T05:53:11;8.20;76.00
13412;DHT22;67102;51.666;6.880;2023-03-12T05:55:38;8.40;75.70
13412;DHT22;67102;51.666;6.880;2023-03-12T05:58:05;8.40;75.70
13412;DHT22;67102;51.666;6.880;2023-03-12T06:00:33;8.40;75.40
13412;DHT22;67102;51.666;6.880;2023-03-12T06:05:26;8.50;75.40
13412;DHT22;67102;51.666;6.880;2023-03-12T06:07:52;8.20;76.20
13412;DHT22;67102;51.666;6.880;2023-03-12T06:10:19;8.40;75.40
13412;DHT22;67102;51.666;6.880;2023-03-12T06:12:45;8.30;79.90
13412;DHT22;67102;51.666;6.880;2023-03-12T06:15:11;8.20;75.70
13412;DHT22;67102;51.666;6.880;2023-03-12T06:17:37;8.40;76.40
13412;DHT22;67102;51.666;6.880;2023-03-12T06:20:04;8.40;76.60
13412;DHT22;67102;51.666;6.880;2023-03-12T06:22:30;8.40;76.60
13412;DHT22;67102;51.666;6.880;2023-03-12T06:24:56;8.40;77.10
13412;DHT22;67102;51.666;6.880;2023-03-12T06:27:24;8.30;77.30
13412;DHT22;67102;51.666;6.880;2023-03-12T06:29:50;8.30;77.60
13412;DHT22;67102;51.666;6.880;2023-03-12T06:32:16;8.30;77.80
13412;DHT22;67102;51.666;6.880;2023-03-12T06:34:42;8.30;77.90
13412;DHT22;67102;51.666;6.880;2023-03-12T06:37:08;8.40;78.00
13412;DHT22;67102;51.666;6.880;2023-03-12T06:39:34;8.40;77.90
13412;DHT22;67102;51.666;6.880;2023-03-12T06:42:00;8.40;78.00
13412;DHT22;67102;51.666;6.880;2023-03-12T06:44:28;8.40;78.00
13412;DHT22;67102;51.666;6.880;2023-03-12T06:46:54;8.50;77.60
13412;DHT22;67102;51.666;6.880;2023-03-12T06:49:20;8.50;77.60
13412;DHT22;67102;51.666;6.880;2023-03-12T06:51:46;8.50;77.70
13412;DHT22;67102;51.666;6.880;2023-03-12T06:54:12;8.60;77.50
13412;DHT22;67102;51.666;6.880;2023-03-12T06:56:38;8.60;77.50
13412;DHT22;67102;51.666;6.880;2023-03-12T06:59:04;8.60;77.50
13412;DHT22;67102;51.666;6.880;2023-03-12T07:01:32;8.60;77.60
13412;DHT22;67102;51.666;6.880;2023-03-12T07:03:58;8.70;77.50
13412;DHT22;67102;51.666;6.880;2023-03-12T07:06:24;8.70;77.50
13412;DHT22;67102;51.666;6.880;2023-03-12T07:08:50;8.70;76.60
13412;DHT22;67102;51.666;6.880;2023-03-12T07:11:17;8.70;76.50
13412;DHT22;67102;51.666;6.880;2023-03-12T07:13:43;8.70;76.60
13412;DHT22;67102;51.666;6.880;2023-03-12T07:18:37;8.90;80.60
13412;DHT22;67102;51.666;6.880;2023-03-12T07:21:04;8.80;77.10
13412;DHT22;67102;51.666;6.880;2023-03-12T07:23:30;8.80;77.30
13412;DHT22;67102;51.666;6.880;2023-03-12T07:25:56;8.80;77.50
13412;DHT22;67102;51.666;6.880;2023-03-12T07:28:22;8.80;78.70
13412;DHT22;67102;51.666;6.880;2023-03-12T07:30:48;8.70;77.90
13412;DHT22;67102;51.666;6.880;2023-03-12T07:33:15;8.70;77.90
13412;DHT22;67102;51.666;6.880;2023-03-12T07:35:45;8.70;78.00
13412;DHT22;67102;51.666;6.880;2023-03-12T07:38:12;8.70;78.30
13412;DHT22;67102;51.666;6.880;2023-03-12T07:40:38;8.70;78.50
13412;DHT22;67102;51.666;6.880;2023-03-12T07:43:04;8.60;78.80
13412;DHT22;67102;51.666;6.880;2023-03-12T07:45:30;8.70;79.20
13412;DHT22;67102;51.666;6.880;2023-03-12T07:47:57;8.60;79.50
13412;DHT22;67102;51.666;6.880;2023-03-12T07:50:23;8.70;79.80
13412;DHT22;67102;51.666;6.880;2023-03-12T07:52:50;8.70;80.00
13412;DHT22;67102;51.666;6.880;2023-03-12T07:55:17;8.70;80.10
13412;DHT22;67102;51.666;6.880;2023-03-12T07:57:43;8.70;80.40
13412;DHT22;67102;51.666;6.880;2023-03-12T08:00:10;8.70;80.60
13412;DHT22;67102;51.666;6.880;2023-03-12T08:02:37;8.80;80.70
13412;DHT22;67102;51.666;6.880;2023-03-12T08:05:04;8.80;80.90
13412;DHT22;67102;51.666;6.880;2023-03-12T08:07:30;8.80;81.10
13412;DHT22;67102;51.666;6.880;2023-03-12T08:09:57;8.80;81.30
13412;DHT22;67102;51.666;6.880;2023-03-12T08:12:23;8.80;81.60
13412;DHT22;67102;51.666;6.880;2023-03-12T08:14:49;8.90;81.90
13412;DHT22;67102;51.666;6.880;2023-03-12T08:17:16;8.90;82.20
13412;DHT22;67102;51.666;6.880;2023-03-12T08:19:42;8.90;82.50
13412;DHT22;67102;51.666;6.880;2023-03-12T08:22:08;9.00;82.70
13412;DHT22;67102;51.666;6.880;2023-03-12T08:24:34;6.60;81.30
13412;DHT22;67102;51.666;6.880;2023-03-12T08:27:02;9.10;82.90
13412;DHT22;67102;51.666;6.880;2023-03-12T08:29:28;9.20;82.80
13412;DHT22;67102;51.666;6.880;2023-03-12T08:31:54;9.20;82.60
13412;DHT22;67102;51.666;6.880;2023-03-12T08:34:20;9.20;82.50
13412;DHT22;67102;51.666;6.880;2023-03-12T08:36:46;9.30;82.60
13412;DHT22;67102;51.666;6.880;2023-03-12T08:39:12;7.80;81.70
13412;DHT22;67102;51.666;6.880;2023-03-12T08:41:38;9.30;83.70
13412;DHT22;67102;51.666;6.880;2023-03-12T08:44:05;9.30;83.00
13412;DHT22;67102;51.666;6.880;2023-03-12T08:46:31;9.80;82.50
13412;DHT22;67102;51.666;6.880;2023-03-12T08:51:23;10.90;83.00
13412;DHT22;67102;51.666;6.880;2023-03-12T08:53:49;9.80;82.80
13412;DHT22;67102;51.666;6.880;2023-03-12T08:56:15;9.80;83.00
13412;DHT22;67102;51.666;6.880;2023-03-12T08:58:41;9.80;82.90
13412;DHT22;67102;51.666;6.880;2023-03-12T09:01:10;9.80;83.00
13412;DHT22;67102;51.666;6.880;2023-03-12T09:03:37;9.80;83.00
13412;DHT22;67102;51.666;6.880;2023-03-12T09:06:05;9.80;83.00
13412;DHT22;67102;51.666;6.880;2023-03-12T09:08:32;9.80;83.10
13412;DHT22;67102;51.666;6.880;2023-03-12T09:10:58;9.80;83.30
13412;DHT22;67102;51.666;6.880;2023-03-12T09:13:25;9.80;83.10
13412;DHT22;67102;51.666;6.880;2023-03-12T09:15:51;9.80;83.50
13412;DHT22;67102;51.666;6.880;2023-03-12T09:18:18;9.80;83.70
13412;DHT22;67102;51.666;6.880;2023-03-12T09:20:44;9.90;84.10
13412;DHT22;67102;51.666;6.880;2023-03-12T09:23:10;9.90;84.20
13412;DHT22;67102;51.666;6.880;2023-03-12T09:25:36;9.90;84.50
13412;DHT22;67102;51.666;6.880;2023-03-12T09:28:01;9.90;84.70
13412;DHT22;67102;51.666;6.880;2023-03-12T09:30:27;9.90;84.90
13412;DHT22;67102;51.666;6.880;2023-03-12T09:32:53;9.90;85.00
13412;DHT22;67102;51.666;6.880;2023-03-12T09:35:21;9.90;85.10
13412;DHT22;67102;51.666;6.880;2023-03-12T09:37:47;10.00;85.40
13412;DHT22;67102;51.666;6.880;2023-03-12T09:40:17;10.00;85.60
13412;DHT22;67102;51.666;6.880;2023-03-12T09:42:46;10.00;85.70
13412;DHT22;67102;51.666;6.880;2023-03-12T09:45:17;10.00;86.80
13412;DHT22;67102;51.666;6.880;2023-03-12T09:47:47;9.90;86.20
13412;DHT22;67102;51.666;6.880;2023-03-12T09:50:21;10.00;86.60
13412;DHT22;67102;51.666;6.880;2023-03-12T09:52:53;10.00;87.00
13412;DHT22;67102;51.666;6.880;2023-03-12T09:55:24;10.10;87.30
13412;DHT22;67102;51.666;6.880;2023-03-12T09:57:51;10.10;87.80
13412;DHT22;67102;51.666;6.880;2023-03-12T10:00:19;10.10;88.40
13412;DHT22;67102;51.666;6.880;2023-03-12T10:02:54;10.20;88.80
13412;DHT22;67102;51.666;6.880;2023-03-12T10:05:36;10.20;89.70
13412;DHT22;67102;51.666;6.880;2023-03-12T10:08:06;10.20;89.90
13412;DHT22;67102;51.666;6.880;2023-03-12T10:10:51;10.20;90.00
13412;DHT22;67102;51.666;6.880;2023-03-12T10:13:37;10.20;90.50
13412;DHT22;67102;51.666;6.880;2023-03-12T10:16:29;10.20;90.50
13412;DHT22;67102;51.666;6.880;2023-03-12T10:19:17;10.20;90.50
13412;DHT22;67102;51.666;6.880;2023-03-12T10:21:53;10.20;90.90
13412;DHT22;67102;51.666;6.880;2023-03-12T10:24:31;10.30;91.00
13412;DHT22;67102;51.666;6.880;2023-03-12T10:27:01;10.30;91.10
13412;DHT22;67102;51.666;6.880;2023-03-12T10:29:29;10.40;90.90
13412;DHT22;67102;51.666;6.880;2023-03-12T10:32:00;10.40;91.00
13412;DHT22;67102;51.666;6.880;2023-03-12T10:34:31;10.50;91.00
13412;DHT22;67102;51.666;6.880;2023-03-12T10:37:05;10.50;90.80
13412;DHT22;67102;51.666;6.880;2023-03-12T10:39:39;10.60;90.80
13412;DHT22;67102;51.666;6.880;2023-03-12T10:42:12;10.60;91.00
13412;DHT22;67102;51.666;6.880;2023-03-12T10:44:41;10.60;91.40
13412;DHT22;67102;51.666;6.880;2023-03-12T10:47:17;10.60;91.40
13412;DHT22;67102;51.666;6.880;2023-03-12T10:49:49;10.70;91.70
13412;DHT22;67102;51.666;6.880;2023-03-12T10:52:19;10.70;91.70
13412;DHT22;67102;51.666;6.880;2023-03-12T10:54:47;10.70;91.60
13412;DHT22;67102;51.666;6.880;2023-03-12T10:57:15;10.80;92.00
13412;DHT22;67102;51.666;6.880;2023-03-12T10:59:43;10.90;91.60
13412;DHT22;67102;51.666;6.880;2023-03-12T11:02:32;10.90;91.60
13412;DHT22;67102;51.666;6.880;2023-03-12T11:05:00;11.00;91.90
13412;DHT22;67102;51.666;6.880;2023-03-12T11:07:29;11.10;91.30
13412;DHT22;67102;51.666;6.880;2023-03-12T11:10:15;11.00;91.20
13412;DHT22;67102;51.666;6.880;2023-03-12T11:12:55;11.20;91.20
13412;DHT22;67102;51.666;6.880;2023-03-12T11:15:24;11.50;91.30
13412;DHT22;67102;51.666;6.880;2023-03-12T11:20:25;11.10;91.20
13412;DHT22;67102;51.666;6.880;2023-03-12T11:22:55;11.00;91.40
13412;DHT22;67102;51.666;6.880;2023-03-12T11:25:23;11.20;91.50
13412;DHT22;67102;51.666;6.880;2023-03-12T11:27:54;11.30;91.50
13412;DHT22;67102;51.666;6.880;2023-03-12T11:30:23;11.50;91.70
13412;DHT22;67102;51.666;6.880;2023-03-12T11:35:24;11.50;91.70
13412;DHT22;67102;51.666;6.880;2023-03-12T11:38:02;11.50;91.80
13412;DHT22;67102;51.666;6.880;2023-03-12T11:40:44;11.50;91.80
13412;DHT22;67102;51.666;6.880;2023-03-12T11:43:31;11.80;92.00
13412;DHT22;67102;51.666;6.880;2023-03-12T11:46:10;12.00;92.20
13412;DHT22;67102;51.666;6.880;2023-03-12T11:48:50;12.00;92.10
13412;DHT22;67102;51.666;6.880;2023-03-12T11:51:31;12.00;92.10
13412;DHT22;67102;51.666;6.880;2023-03-12T11:54:24;12.20;92.30
13412;DHT22;67102;51.666;6.880;2023-03-12T11:57:13;12.40;92.30
13412;DHT22;67102;51.666;6.880;2023-03-12T11:59:55;12.50;92.00
13412;DHT22;67102;51.666;6.880;2023-03-12T12:05:59;12.70;91.70
13412;DHT22;67102;51.666;6.880;2023-03-12T12:08:39;12.80;91.80
13412;DHT22;67102;51.666;6.880;2023-03-12T12:11:16;12.90;91.90
13412;DHT22;67102;51.666;6.880;2023-03-12T12:13:54;13.00;91.90
13412;DHT22;67102;51.666;6.880;2023-03-12T12:16:38;13.00;92.00
13412;DHT22;67102;51.666;6.880;2023-03-12T12:19:20;13.20;92.10
13412;DHT22;67102;51.666;6.880;2023-03-12T12:22:07;13.20;92.10
13412;DHT22;67102;51.666;6.880;2023-03-12T12:25:00;13.50;92.10
13412;DHT22;67102;51.666;6.880;2023-03-12T12:27:52;13.40;91.90
13412;DHT22;67102;51.666;6.880;2023-03-12T12:30:34;13.60;91.90
13412;DHT22;67102;51.666;6.880;2023-03-12T12:33:19;13.60;91.80
13412;DHT22;67102;51.666;6.880;2023-03-12T12:35:54;13.60;91.80
13412;DHT22;67102;51.666;6.880;2023-03-12T12:38:26;13.60;92.10
13412;DHT22;67102;51.666;6.880;2023-03-12T12:40:59;13.60;92.10
13412;DHT22;67102;51.666;6.880;2023-03-12T12:43:30;13.60;92.10
13412;DHT22;67102;51.666;6.880;2023-03-12T12:46:01;13.60;92.30
13412;DHT22;67102;51.666;6.880;2023-03-12T12:48:32;13.70;92.30
13412;DHT22;67102;51.666;6.880;2023-03-12T12:51:00;13.70;92.30
13412;DHT22;67102;51.666;6.880;2023-03-12T12:53:33;13.70;92.30
13412;DHT22;67102;51.666;6.880;2023-03-12T12:56:07;13.80;92.50
13412;DHT22;67102;51.666;6.880;2023-03-12T12:58:59;13.70;92.30
13412;DHT22;67102;51.666;6.880;2023-03-12T13:01:32;13.80;92.60
13412;DHT22;67102;51.666;6.880;2023-03-12T13:04:03;13.90;93.00
13412;DHT22;67102;51.666;6.880;2023-03-12T13:06:52;13.90;93.30
13412;DHT22;67102;51.666;6.880;2023-03-12T13:09:21;14.00;93.60
13412;DHT22;67102;51.666;6.880;2023-03-12T13:11:48;14.20;93.60
13412;DHT22;67102;51.666;6.880;2023-03-12T13:14:37;14.40;93.50
13412;DHT22;67102;51.666;6.880;2023-03-12T13:17:26;14.30;93.80
13412;DHT22;67102;51.666;6.880;2023-03-12T13:19:58;14.40;93.70
13412;DHT22;67102;51.666;6.880;2023-03-12T13:22:42;14.50;93.80
13412;DHT22;67102;51.666;6.880;2023-03-12T13:25:25;14.80;93.20
13412;DHT22;67102;51.666;6.880;2023-03-12T13:28:00;14.90;92.90
13412;DHT22;67102;51.666;6.880;2023-03-12T13:30:54;14.90;93.20
13412;DHT22;67102;51.666;6.880;2023-03-12T13:33:37;15.00;93.30
13412;DHT22;67102;51.666;6.880;2023-03-12T13:36:11;15.20;93.00
13412;DHT22;67102;51.666;6.880;2023-03-12T13:38:54;15.20;93.20
13412;DHT22;67102;51.666;6.880;2023-03-12T13:41:33;15.30;93.20
13412;DHT22;67102;51.666;6.880;2023-03-12T13:44:30;15.70;93.20
13412;DHT22;67102;51.666;6.880;2023-03-12T13:47:03;15.50;93.20
13412;DHT22;67102;51.666;6.880;2023-03-12T13:49:36;15.60;93.30
13412;DHT22;67102;51.666;6.880;2023-03-12T13:52:18;15.80;92.80
13412;DHT22;67102;51.666;6.880;2023-03-12T13:54:48;15.80;92.40
13412;DHT22;67102;51.666;6.880;2023-03-12T13:57:39;15.90;92.20
13412;DHT22;67102;51.666;6.880;2023-03-12T14:00:15;15.90;91.90
13412;DHT22;67102;51.666;6.880;2023-03-12T14:02:45;16.00;92.10
13412;DHT22;67102;51.666;6.880;2023-03-12T14:05:14;16.00;91.90
13412;DHT22;67102;51.666;6.880;2023-03-12T14:08:00;16.10;91.90
13412;DHT22;67102;51.666;6.880;2023-03-12T14:11:02;16.10;91.60
13412;DHT22;67102;51.666;6.880;2023-03-12T14:13:47;16.20;91.50
13412;DHT22;67102;51.666;6.880;2023-03-12T14:16:32;16.30;91.40
13412;DHT22;67102;51.666;6.880;2023-03-12T14:19:04;16.30;91.40
13412;DHT22;67102;51.666;6.880;2023-03-12T14:21:34;16.40;90.80
13412;DHT22;67102;51.666;6.880;2023-03-12T14:24:01;16.30;90.50
13412;DHT22;67102;51.666;6.880;2023-03-12T14:26:30;16.40;90.40
13412;DHT22;67102;51.666;6.880;2023-03-12T14:29:00;16.30;90.30
13412;DHT22;67102;51.666;6.880;2023-03-12T14:31:30;16.40;90.60
13412;DHT22;67102;51.666;6.880;2023-03-12T14:33:59;16.40;90.40
13412;DHT22;67102;51.666;6.880;2023-03-12T14:36:36;16.40;90.30
13412;DHT22;67102;51.666;6.880;2023-03-12T14:39:11;16.40;90.10
13412;DHT22;67102;51.666;6.880;2023-03-12T14:41:44;16.10;90.00
13412;DHT22;67102;51.666;6.880;2023-03-12T14:44:20;16.30;90.40
13412;DHT22;67102;51.666;6.880;2023-03-12T14:46:57;16.20;89.10
13412;DHT22;67102;51.666;6.880;2023-03-12T14:49:24;16.20;89.40
13412;DHT22;67102;51.666;6.880;2023-03-12T14:51:50;16.20;89.60
13412;DHT22;67102;51.666;6.880;2023-03-12T14:54:17;16.10;89.20
13412;DHT22;67102;51.666;6.880;2023-03-12T14:56:44;15.90;89.50
13412;DHT22;67102;51.666;6.880;2023-03-12T14:59:24;16.10;92.30
13412;DHT22;67102;51.666;6.880;2023-03-12T15:01:52;16.10;86.40
13412;DHT22;67102;51.666;6.880;2023-03-12T15:04:23;16.10;88.70
13412;DHT22;67102;51.666;6.880;2023-03-12T15:06:52;16.10;88.80
13412;DHT22;67102;51.666;6.880;2023-03-12T15:09:21;16.10;88.80
13412;DHT22;67102;51.666;6.880;2023-03-12T15:11:52;16.10;89.00
13412;DHT22;67102;51.666;6.880;2023-03-12T15:14:19;16.10;88.50
13412;DHT22;67102;51.666;6.880;2023-03-12T15:19:17;16.20;86.40
13412;DHT22;67102;51.666;6.880;2023-03-12T15:21:45;16.20;88.10
13412;DHT22;67102;51.666;6.880;2023-03-12T15:26:39;16.10;86.80
13412;DHT22;67102;51.666;6.880;2023-03-12T15:29:18;16.20;87.30
13412;DHT22;67102;51.666;6.880;2023-03-12T15:31:47;16.20;87.50
13412;DHT22;67102;51.666;6.880;2023-03-12T15:34:27;16.30;87.40
13412;DHT22;67102;51.666;6.880;2023-03-12T15:39:24;16.00;86.40
13412;DHT22;67102;51.666;6.880;2023-03-12T15:41:51;16.20;86.20
13412;DHT22;67102;51.666;6.880;2023-03-12T15:44:20;16.00;86.30
13412;DHT22;67102;51.666;6.880;2023-03-12T15:46:48;16.30;86.00
13412;DHT22;67102;51.666;6.880;2023-03-12T15:49:22;16.00;88.00
13412;DHT22;67102;51.666;6.880;2023-03-12T15:52:01;16.10;85.70
13412;DHT22;67102;51.666;6.880;2023-03-12T15:54:30;16.10;85.60
13412;DHT22;67102;51.666;6.880;2023-03-12T15:57:17;16.20;85.30
13412;DHT22;67102;51.666;6.880;2023-03-12T16:00:17;15.90;86.80
13412;DHT22;67102;51.666;6.880;2023-03-12T16:02:48;15.90;84.90
13412;DHT22;67102;51.666;6.880;2023-03-12T16:05:17;16.40;84.70
13412;DHT22;67102;51.666;6.880;2023-03-12T16:07:44;16.10;83.80
13412;DHT22;67102;51.666;6.880;2023-03-12T16:10:13;15.90;83.80
13412;DHT22;67102;51.666;6.880;2023-03-12T16:12:40;16.10;83.10
13412;DHT22;67102;51.666;6.880;2023-03-12T16:15:12;16.10;83.80
13412;DHT22;67102;51.666;6.880;2023-03-12T16:17:39;16.00;83.10
13412;DHT22;67102;51.666;6.880;2023-03-12T16:20:10;16.40;84.00
13412;DHT22;67102;51.666;6.880;2023-03-12T16:22:39;16.20;84.20
13412;DHT22;67102;51.666;6.880;2023-03-12T16:25:06;16.20;84.10
13412;DHT22;67102;51.666;6.880;2023-03-12T16:30:00;16.00;83.50
13412;DHT22;67102;51.666;6.880;2023-03-12T16:32:26;15.60;83.30
13412;DHT22;67102;51.666;6.880;2023-03-12T16:37:18;16.30;83.50
13412;DHT22;67102;51.666;6.880;2023-03-12T16:39:46;15.90;82.90
13412;DHT22;67102;51.666;6.880;2023-03-12T16:42:15;15.80;82.30
13412;DHT22;67102;51.666;6.880;2023-03-12T16:44:50;15.90;82.60
13412;DHT22;67102;51.666;6.880;2023-03-12T16:47:16;15.90;83.00
13412;DHT22;67102;51.666;6.880;2023-03-12T16:49:43;15.80;83.20
13412;DHT22;67102;51.666;6.880;2023-03-12T16:52:15;15.80;83.50
13412;DHT22;67102;51.666;6.880;2023-03-12T16:54:42;15.80;83.00
13412;DHT22;67102;51.666;6.880;2023-03-12T16:57:15;15.70;83.30
13412;DHT22;67102;51.666;6.880;2023-03-12T16:59:44;15.70;83.30
13412;DHT22;67102;51.666;6.880;2023-03-12T17:02:14;15.60;83.20
13412;DHT22;67102;51.666;6.880;2023-03-12T17:04:41;15.60;83.10
13412;DHT22;67102;51.666;6.880;2023-03-12T17:07:08;15.50;81.70
13412;DHT22;67102;51.666;6.880;2023-03-12T17:09:34;15.50;82.90
13412;DHT22;67102;51.666;6.880;2023-03-12T17:12:00;15.50;81.00
13412;DHT22;67102;51.666;6.880;2023-03-12T17:14:29;15.40;82.30
13412;DHT22;67102;51.666;6.880;2023-03-12T17:16:55;15.40;82.10
13412;DHT22;67102;51.666;6.880;2023-03-12T17:19:21;15.40;82.50
13412;DHT22;67102;51.666;6.880;2023-03-12T17:21:48;15.30;81.70